Time;durP1;ratioP1;P1;durP2;ratioP2;P2;SDS_P1;SDS_P2;PMS_P1;PMS_P2;Temp;Humidity;BMP_temperature;BMP_pressure;BME280_temperature;BME280_humidity;BME280_pressure;Samples;Min_cycle;Max_cycle;Signal;HPM_P1;HPM_P2
2022/05/01 00:01:39;;;;;;;24.15;15.82;;;9.80;90.00;;;;;;5111442;28;20543;-55
2022/05/01 00:04:05;;;;;;;34.28;20.08;;;9.80;90.00;;;;;;5111107;28;20027;-57
2022/05/01 00:06:33;;;;;;;48.50;26.70;;;9.80;89.40;;;;;;5111379;28;20111;-59
2022/05/01 00:09:00;;;;;;;58.63;28.60;;;9.80;89.60;;;;;;5111460;28;20031;-53
2022/05/01 00:11:30;;;;;;;54.65;28.10;;;9.70;90.00;;;;;;5093020;28;20077;-54
2022/05/01 00:13:59;;;;;;;41.70;20.67;;;9.70;90.10;;;;;;5111271;28;20032;-58
2022/05/01 00:16:25;;;;;;;;;;;9.70;90.20;;;;;;5111900;28;20118;-50
2022/05/01 00:18:50;;;;;;;23.05;15.30;;;9.70;90.20;;;;;;5111682;28;20378;-60
2022/05/01 00:21:16;;;;;;;30.08;17.55;;;9.70;90.40;;;;;;5111031;28;20019;-53
2022/05/01 00:23:42;;;;;;;33.95;19.83;;;9.70;90.60;;;;;;5092940;28;20032;-57
2022/05/01 00:26:08;;;;;;;37.45;20.67;;;9.70;90.80;;;;;;5111225;28;20502;-55
2022/05/01 00:28:36;;;;;;;54.90;27.40;;;9.60;90.70;;;;;;5110979;28;20137;-54
2022/05/01 00:31:06;;;;;;;39.60;22.77;;;9.70;90.80;;;;;;5111073;28;20028;-60
2022/05/01 00:36:27;;;;;;;30.60;17.35;;;9.60;90.70;;;;;;5110977;28;20027;-57
2022/05/01 00:39:19;;;;;;;24.83;16.10;;;9.60;90.90;;;;;;5110981;28;20039;-58
2022/05/01 00:41:46;;;;;;;25.02;16.23;;;9.60;90.90;;;;;;5106520;28;20107;-52
2022/05/01 00:44:14;;;;;;;25.77;16.92;;;9.60;91.10;;;;;;5110964;28;20411;-52
2022/05/01 00:46:47;;;;;;;28.23;19.08;;;9.70;91.10;;;;;;5111048;28;20108;-58
2022/05/01 00:49:19;;;;;;;32.08;18.67;;;9.70;90.70;;;;;;5110568;28;20100;-53
2022/05/01 00:51:49;;;;;;;31.83;19.63;;;9.60;90.80;;;;;;5111038;28;20019;-53
2022/05/01 00:54:24;;;;;;;36.10;20.48;;;9.60;91.00;;;;;;5110902;28;20085;-48
2022/05/01 00:56:51;;;;;;;32.72;20.17;;;9.60;91.10;;;;;;5110777;28;20481;-47
2022/05/01 00:59:18;;;;;;;30.30;20.45;;;9.60;91.10;;;;;;5110741;28;20012;-51
2022/05/01 01:01:45;;;;;;;29.45;18.90;;;9.70;91.20;;;;;;5110678;28;20032;-54
2022/05/01 01:04:11;;;;;;;26.83;18.00;;;9.70;91.10;;;;;;5110913;28;20028;-61
2022/05/01 01:06:38;;;;;;;28.85;19.25;;;9.70;91.30;;;;;;5110725;28;20359;-57
2022/05/01 01:09:05;;;;;;;30.42;20.33;;;9.70;91.00;;;;;;5110801;28;20027;-56
2022/05/01 01:11:31;;;;;;;28.92;18.40;;;9.70;90.80;;;;;;5110788;28;20047;-52
2022/05/01 01:13:59;;;;;;;31.30;18.23;;;9.70;90.60;;;;;;5110805;28;20487;-59
2022/05/01 01:16:25;;;;;;;33.92;20.42;;;9.70;90.70;;;;;;5112479;28;20095;-53
2022/05/01 01:18:51;;;;;;;39.38;21.77;;;9.70;90.50;;;;;;5114205;28;20054;-60
2022/05/01 01:21:18;;;;;;;33.38;20.08;;;9.70;90.60;;;;;;5114183;28;20051;-55
2022/05/01 01:23:45;;;;;;;29.58;19.55;;;9.60;90.70;;;;;;5114383;28;20020;-59
2022/05/01 01:26:13;;;;;;;29.67;18.70;;;9.60;90.80;;;;;;5114504;28;20027;-55
2022/05/01 01:28:40;;;;;;;41.40;23.10;;;9.60;90.80;;;;;;5114333;28;20492;-58
2022/05/01 01:33:55;;;;;;;51.58;26.77;;;9.60;91.10;;;;;;5114382;28;20070;-56
2022/05/01 01:36:23;;;;;;;43.13;24.58;;;9.60;90.90;;;;;;5114139;28;20061;-60
2022/05/01 01:38:49;;;;;;;54.78;28.67;;;9.60;91.00;;;;;;5114157;28;20043;-51
2022/05/01 01:41:20;;;;;;;43.58;25.52;;;9.50;90.90;;;;;;5114002;28;20081;-55
2022/05/01 01:43:47;;;;;;;53.70;27.52;;;9.60;91.10;;;;;;5113981;28;20027;-53
2022/05/01 01:46:13;;;;;;;47.70;25.33;;;9.50;91.00;;;;;;5113802;27;20020;-54
2022/05/01 01:48:38;;;;;;;41.25;23.92;;;9.50;90.90;;;;;;5112610;28;20390;-60
2022/05/01 01:51:06;;;;;;;35.17;20.98;;;9.50;91.10;;;;;;5113549;28;20064;-51
2022/05/01 01:53:33;;;;;;;41.97;23.60;;;9.50;91.10;;;;;;5113860;28;20042;-49
2022/05/01 01:56:00;;;;;;;50.00;25.77;;;9.50;91.00;;;;;;5113684;28;20475;-55
2022/05/01 01:58:27;;;;;;;38.97;22.08;;;9.40;91.10;;;;;;5113714;28;20036;-56
2022/05/01 02:00:53;;;;;;;37.20;21.30;;;9.40;91.10;;;;;;5113478;28;20055;-56
2022/05/01 02:03:19;;;;;;;38.30;22.70;;;9.40;91.30;;;;;;5113629;28;20146;-52
2022/05/01 02:05:46;;;;;;;39.92;22.75;;;9.40;91.40;;;;;;5113604;28;20493;-56
2022/05/01 02:08:13;;;;;;;44.10;23.90;;;9.40;91.40;;;;;;5113658;28;20055;-60
2022/05/01 02:10:39;;;;;;;41.20;23.42;;;9.40;91.60;;;;;;5112169;28;20035;-51
2022/05/01 02:13:05;;;;;;;36.08;20.52;;;9.40;91.60;;;;;;5113431;28;20030;-41
2022/05/01 02:15:32;;;;;;;25.60;17.45;;;9.40;91.30;;;;;;5113624;28;20035;-41
2022/05/01 02:18:00;;;;;;;27.17;17.73;;;9.40;91.30;;;;;;5113343;28;20139;-46
2022/05/01 02:20:27;;;;;;;27.33;17.45;;;9.40;91.40;;;;;;5113077;28;20486;-37
2022/05/01 02:22:53;;;;;;;23.30;16.80;;;9.40;91.30;;;;;;5113278;28;20054;-45
2022/05/01 02:25:23;;;;;;;25.75;17.58;;;9.40;91.30;;;;;;5113194;28;20064;-50
2022/05/01 02:27:49;;;;;;;;;;;9.40;91.40;;;;;;5113432;28;20081;-47
2022/05/01 02:30:14;;;;;;;26.45;16.35;;;9.40;91.50;;;;;;5113171;28;20300;-38
2022/05/01 02:32:40;;;;;;;25.58;16.55;;;9.40;91.50;;;;;;5113011;28;20129;-49
2022/05/01 02:35:08;;;;;;;26.15;17.67;;;9.40;91.50;;;;;;5113098;28;20066;-38
2022/05/01 02:37:34;;;;;;;26.48;18.08;;;9.40;91.50;;;;;;5112886;28;20051;-42
2022/05/01 02:39:59;;;;;;;31.98;20.45;;;9.40;91.70;;;;;;5111548;28;20042;-41
2022/05/01 02:42:25;;;;;;;38.53;21.17;;;9.30;91.70;;;;;;5112769;28;20478;-58
2022/05/01 02:44:51;;;;;;;33.67;19.73;;;9.40;92.00;;;;;;5112758;28;20123;-55
2022/05/01 02:47:16;;;;;;;33.38;20.38;;;9.30;91.70;;;;;;5112705;28;20019;-40
2022/05/01 02:49:42;;;;;;;39.38;22.45;;;9.30;91.70;;;;;;5110714;28;20020;-40
2022/05/01 02:52:09;;;;;;;34.35;22.08;;;9.20;91.80;;;;;;5105377;28;20382;-52
2022/05/01 02:54:35;;;;;;;33.67;20.27;;;9.10;91.80;;;;;;5112549;28;20518;-52
2022/05/01 02:57:02;;;;;;;28.92;19.25;;;9.10;92.10;;;;;;5112470;28;20040;-58
2022/05/01 02:59:27;;;;;;;26.08;17.25;;;9.00;92.10;;;;;;5112348;28;20028;-50
2022/05/01 03:01:55;;;;;;;29.65;19.15;;;9.00;92.50;;;;;;5112406;28;20418;-62
2022/05/01 03:04:21;;;;;;;32.40;19.00;;;9.10;92.70;;;;;;5112454;28;20020;-54
2022/05/01 03:06:47;;;;;;;26.40;18.73;;;9.10;92.70;;;;;;5111772;28;20066;-53
2022/05/01 03:09:13;;;;;;;25.20;16.95;;;9.10;92.40;;;;;;5112314;28;20051;-59
2022/05/01 03:11:39;;;;;;;26.10;17.27;;;9.10;92.50;;;;;;5112317;28;20035;-56
2022/05/01 03:14:04;;;;;;;22.90;16.17;;;9.20;92.80;;;;;;5112182;28;20012;-54
2022/05/01 03:16:30;;;;;;;28.08;17.90;;;9.10;92.50;;;;;;5112194;28;20032;-41
2022/05/01 03:24:26;;;;;;;25.33;17.67;;;9.10;92.30;;;;;;5112396;28;20481;-51
2022/05/01 03:26:52;;;;;;;23.98;16.63;;;9.10;92.50;;;;;;5111988;28;20032;-58
2022/05/01 03:29:18;;;;;;;25.55;18.05;;;9.10;92.60;;;;;;5111918;28;20115;-43
2022/05/01 03:31:45;;;;;;;27.17;17.92;;;9.10;92.60;;;;;;5111943;28;20535;-44
2022/05/01 03:34:11;;;;;;;27.48;18.98;;;9.20;92.90;;;;;;5111713;28;20040;-51
2022/05/01 03:36:37;;;;;;;26.27;18.38;;;9.10;92.60;;;;;;5111958;28;20030;-40
2022/05/01 03:39:05;;;;;;;26.80;19.20;;;9.10;92.60;;;;;;5111006;28;20482;-51
2022/05/01 03:41:31;;;;;;;26.25;18.38;;;9.20;92.70;;;;;;5111808;28;20031;-53
2022/05/01 03:43:57;;;;;;;28.60;19.77;;;9.20;92.90;;;;;;5111722;28;20062;-54
2022/05/01 03:46:23;;;;;;;30.33;18.60;;;9.20;92.50;;;;;;5111586;28;20055;-54
2022/05/01 03:48:50;;;;;;;28.27;17.92;;;9.30;92.50;;;;;;5111445;28;20045;-53
2022/05/01 03:51:16;;;;;;;28.58;18.38;;;9.30;92.30;;;;;;5111718;28;20024;-55
2022/05/01 03:53:42;;;;;;;25.00;19.02;;;9.30;92.30;;;;;;5111309;28;20026;-55
2022/05/01 03:56:10;;;;;;;28.23;18.35;;;9.30;92.40;;;;;;5111480;28;20542;-53
2022/05/01 03:58:38;;;;;;;25.55;17.90;;;9.30;92.30;;;;;;5111341;28;20482;-53
2022/05/01 04:01:04;;;;;;;28.40;18.65;;;9.30;92.50;;;;;;5110992;28;20044;-54
2022/05/01 04:03:29;;;;;;;27.85;18.13;;;9.30;92.40;;;;;;5111423;28;20459;-58
2022/05/01 04:05:55;;;;;;;28.08;18.58;;;9.30;92.70;;;;;;5111449;28;20023;-59
2022/05/01 04:08:21;;;;;;;28.85;18.95;;;9.30;92.50;;;;;;5111423;28;20016;-56
2022/05/01 04:10:47;;;;;;;26.23;18.50;;;9.30;92.50;;;;;;5111327;28;20042;-53
2022/05/01 04:13:14;;;;;;;27.50;18.40;;;9.30;92.50;;;;;;5111401;28;20016;-56
2022/05/01 04:15:41;;;;;;;26.45;17.08;;;9.20;92.50;;;;;;5109329;28;20023;-45
2022/05/01 04:18:08;;;;;;;26.88;18.73;;;9.20;92.80;;;;;;5090962;28;20101;-44
2022/05/01 04:20:38;;;;;;;26.13;18.08;;;9.10;92.80;;;;;;5110554;28;20019;-60
2022/05/01 04:23:08;;;;;;;22.85;16.33;;;9.10;92.80;;;;;;5111299;28;20023;-54
2022/05/01 04:25:34;;;;;;;;;;;9.10;92.90;;;;;;5111734;28;20126;-50
2022/05/01 04:28:09;;;;;;;25.63;18.17;;;9.00;92.70;;;;;;5111117;28;20003;-46
2022/05/01 04:30:36;;;;;;;27.42;17.75;;;9.10;93.10;;;;;;5111257;28;20547;-53
2022/05/01 04:33:10;;;;;;;23.17;17.27;;;9.10;93.10;;;;;;5111155;28;20382;-55
2022/05/01 04:35:37;;;;;;;29.42;18.27;;;9.10;92.90;;;;;;5111161;28;20068;-57
2022/05/01 04:38:07;;;;;;;26.33;18.60;;;9.20;93.00;;;;;;5111003;28;20161;-41
2022/05/01 04:40:47;;;;;;;30.02;18.17;;;9.20;93.10;;;;;;5111182;28;20153;-58
2022/05/01 04:43:19;;;;;;;26.55;18.05;;;9.20;92.90;;;;;;5111215;28;20035;-39
2022/05/01 04:45:50;;;;;;;24.42;16.75;;;9.30;92.90;;;;;;5111231;28;20031;-46
2022/05/01 04:48:18;;;;;;;26.67;17.35;;;9.30;92.50;;;;;;5110695;28;20038;-40
2022/05/01 04:50:45;;;;;;;26.00;17.38;;;9.20;92.40;;;;;;5113091;28;20381;-37
2022/05/01 04:53:12;;;;;;;28.92;19.52;;;9.20;92.70;;;;;;5114865;28;20105;-37
2022/05/01 04:55:39;;;;;;;28.23;18.70;;;9.20;93.00;;;;;;5115413;28;20032;-38
2022/05/01 04:58:06;;;;;;;23.02;16.58;;;9.20;92.80;;;;;;5114864;28;20428;-54
2022/05/01 05:00:32;;;;;;;25.08;17.08;;;9.30;92.70;;;;;;5114540;28;20043;-57
2022/05/01 05:02:58;;;;;;;29.77;18.27;;;9.30;92.70;;;;;;5114686;28;20039;-55
2022/05/01 05:05:24;;;;;;;23.80;16.40;;;9.40;92.50;;;;;;5114757;28;20019;-60
2022/05/01 05:07:50;;;;;;;29.00;17.05;;;9.40;92.40;;;;;;5114698;28;20027;-54
2022/05/01 05:10:16;;;;;;;25.92;16.92;;;9.50;92.40;;;;;;5114708;28;20062;-51
2022/05/01 05:12:43;;;;;;;25.98;17.42;;;9.50;92.20;;;;;;5114692;28;20026;-55
2022/05/01 05:15:15;;;;;;;25.75;17.40;;;9.60;92.10;;;;;;5114751;28;20047;-60
2022/05/01 05:17:44;;;;;;;25.63;17.58;;;9.70;92.00;;;;;;5114503;28;20036;-52
2022/05/01 05:20:11;;;;;;;25.60;16.52;;;9.70;92.00;;;;;;5114512;28;20023;-58
2022/05/01 05:22:37;;;;;;;27.38;18.15;;;9.80;92.00;;;;;;5114578;28;20501;-42
2022/05/01 05:25:04;;;;;;;24.23;17.17;;;9.80;91.70;;;;;;5114573;28;20024;-41
2022/05/01 05:27:30;;;;;;;25.13;17.02;;;9.80;91.60;;;;;;5114471;28;20034;-54
2022/05/01 05:29:56;;;;;;;29.27;18.90;;;9.80;91.80;;;;;;5114343;28;20031;-55
2022/05/01 05:32:23;;;;;;;24.10;17.58;;;9.90;91.70;;;;;;5114116;28;20101;-44
2022/05/01 05:34:50;;;;;;;23.75;16.33;;;9.90;91.40;;;;;;5114623;28;20023;-45
2022/05/01 05:37:17;;;;;;;25.30;17.63;;;9.80;91.50;;;;;;5114065;28;20434;-62
2022/05/01 05:39:43;;;;;;;24.77;18.30;;;9.90;91.80;;;;;;5096367;28;20387;-55
2022/05/01 05:42:09;;;;;;;25.17;18.70;;;9.90;91.70;;;;;;5114119;28;20031;-51
2022/05/01 05:44:35;;;;;;;24.58;17.30;;;9.90;92.00;;;;;;5114091;28;20526;-59
2022/05/01 05:47:01;;;;;;;31.02;20.08;;;9.90;91.70;;;;;;5114058;28;20151;-57
2022/05/01 05:49:27;;;;;;;29.15;19.05;;;10.00;91.60;;;;;;5113906;28;20051;-56
2022/05/01 05:51:52;;;;;;;24.55;18.10;;;10.10;91.40;;;;;;5113840;28;20031;-53
2022/05/01 05:54:18;;;;;;;26.17;17.35;;;10.20;91.20;;;;;;5113496;28;20032;-59
2022/05/01 05:56:44;;;;;;;24.30;17.00;;;10.30;90.80;;;;;;5113518;28;20063;-49
2022/05/01 05:59:09;;;;;;;25.02;17.95;;;10.30;91.20;;;;;;5113811;28;20035;-57
2022/05/01 06:01:35;;;;;;;23.55;16.65;;;10.40;91.10;;;;;;5112812;28;20089;-59
2022/05/01 06:04:01;;;;;;;31.52;19.02;;;10.50;90.70;;;;;;5113630;28;20539;-58
2022/05/01 06:06:27;;;;;;;30.90;19.90;;;10.60;90.10;;;;;;5113705;28;20110;-58
2022/05/01 06:08:52;;;;;;;36.85;20.42;;;10.70;90.30;;;;;;5113619;28;20149;-57
2022/05/01 06:11:18;;;;;;;31.50;19.73;;;10.80;90.10;;;;;;5113675;28;20015;-60
2022/05/01 06:13:44;;;;;;;31.65;20.00;;;10.90;90.30;;;;;;5113401;28;20032;-47
2022/05/01 06:16:10;;;;;;;27.10;18.48;;;11.00;89.80;;;;;;5113544;28;20020;-57
2022/05/01 06:18:35;;;;;;;27.15;18.70;;;11.10;89.50;;;;;;5113383;28;20035;-55
2022/05/01 06:21:01;;;;;;;28.88;18.63;;;11.30;89.50;;;;;;5113522;28;20054;-56
2022/05/01 06:23:27;;;;;;;26.35;16.15;;;11.40;88.80;;;;;;5113079;28;20016;-48
2022/05/01 06:25:53;;;;;;;19.98;14.65;;;11.50;88.00;;;;;;5113421;28;20433;-58
2022/05/01 06:28:19;;;;;;;21.10;14.70;;;11.70;85.30;;;;;;5113167;28;20103;-42
2022/05/01 06:30:47;;;;;;;19.10;14.00;;;11.80;83.70;;;;;;5113396;28;20495;-58
2022/05/01 06:33:16;;;;;;;18.38;14.02;;;12.00;82.80;;;;;;5113137;28;20107;-55
2022/05/01 06:35:42;;;;;;;20.73;14.40;;;12.20;81.40;;;;;;5113462;28;20034;-53
2022/05/01 06:38:08;;;;;;;18.00;14.18;;;12.30;83.70;;;;;;5112932;28;20028;-61
2022/05/01 06:40:37;;;;;;;18.48;14.07;;;12.50;83.60;;;;;;5113101;28;20023;-37
2022/05/01 06:43:03;;;;;;;19.17;14.13;;;12.70;83.60;;;;;;5113216;28;20031;-38
2022/05/01 06:45:29;;;;;;;19.40;13.35;;;13.10;80.50;;;;;;5112986;28;20024;-56
2022/05/01 06:47:54;;;;;;;16.65;12.73;;;13.50;78.70;;;;;;5113120;28;20080;-46
2022/05/01 06:50:20;;;;;;;17.77;12.77;;;13.80;78.30;;;;;;5113162;28;20522;-59
2022/05/01 06:52:46;;;;;;;14.63;12.32;;;14.00;74.60;;;;;;5112816;28;20031;-56
2022/05/01 06:55:13;;;;;;;16.35;11.25;;;14.30;77.20;;;;;;5112894;28;20024;-57
2022/05/01 06:57:39;;;;;;;15.98;10.80;;;14.60;75.40;;;;;;5112772;28;20122;-53
2022/05/01 07:00:06;;;;;;;16.75;11.23;;;14.70;72.30;;;;;;5112646;28;20075;-57
2022/05/01 07:02:32;;;;;;;14.65;11.40;;;14.80;71.80;;;;;;5112684;28;20020;-60
2022/05/01 07:04:58;;;;;;;16.13;10.98;;;14.80;73.40;;;;;;5112926;28;20028;-41
2022/05/01 07:07:23;;;;;;;14.65;9.90;;;14.80;72.10;;;;;;5112795;28;20666;-60
2022/05/01 07:09:50;;;;;;;11.82;9.30;;;14.70;70.10;;;;;;5112496;28;20043;-52
2022/05/01 07:12:16;;;;;;;12.55;8.10;;;14.60;70.70;;;;;;5112613;28;20381;-59
2022/05/01 07:14:43;;;;;;;11.77;8.73;;;14.50;70.50;;;;;;5111257;28;20095;-59
2022/05/01 07:17:09;;;;;;;14.30;9.63;;;14.50;70.90;;;;;;5112569;28;20126;-43
2022/05/01 07:19:35;;;;;;;17.98;10.32;;;14.60;72.40;;;;;;5112434;28;20068;-54
2022/05/01 07:22:01;;;;;;;11.25;8.98;;;14.50;71.70;;;;;;5112365;28;20036;-55
2022/05/01 07:24:27;;;;;;;13.13;10.02;;;14.50;73.80;;;;;;5112097;28;20015;-58
2022/05/01 07:26:53;;;;;;;12.48;9.02;;;14.50;72.70;;;;;;5098161;28;20028;-55
2022/05/01 07:29:19;;;;;;;15.40;9.10;;;14.60;71.30;;;;;;5091787;28;20024;-57
2022/05/01 07:31:45;;;;;;;14.25;9.63;;;14.70;70.40;;;;;;5091715;28;20024;-57
2022/05/01 07:34:10;;;;;;;12.93;9.38;;;14.70;70.10;;;;;;5101221;28;20075;-47
2022/05/01 07:36:37;;;;;;;11.68;9.43;;;14.80;71.50;;;;;;5108309;28;20053;-51
2022/05/01 07:39:03;;;;;;;12.48;9.00;;;15.00;72.30;;;;;;5111324;28;20037;-61
2022/05/01 07:41:29;;;;;;;12.85;8.68;;;15.10;69.40;;;;;;5111493;28;20070;-55
2022/05/01 07:43:55;;;;;;;17.33;9.50;;;15.20;72.30;;;;;;5108580;28;20016;-57
2022/05/01 07:46:22;;;;;;;11.68;9.27;;;15.30;68.00;;;;;;5111428;28;20027;-59
2022/05/01 07:48:48;;;;;;;13.05;8.95;;;15.30;69.10;;;;;;5111047;28;20501;-55
2022/05/01 07:51:15;;;;;;;14.13;8.30;;;15.30;67.60;;;;;;5110915;28;20028;-57
2022/05/01 07:53:41;;;;;;;13.95;8.82;;;15.40;67.70;;;;;;5110894;28;20342;-55
2022/05/01 07:56:07;;;;;;;12.32;8.60;;;15.60;69.60;;;;;;5111119;28;20027;-55
2022/05/01 07:58:33;;;;;;;11.70;8.45;;;16.10;66.60;;;;;;5110917;28;20035;-58
2022/05/01 08:01:01;;;;;;;10.93;8.05;;;16.60;64.20;;;;;;5110889;28;20169;-57
2022/05/01 08:06:12;;;;;;;10.07;7.40;;;18.50;59.90;;;;;;5096127;28;20037;-52
2022/05/01 08:08:41;;;;;;;12.05;7.95;;;19.60;57.50;;;;;;5110955;28;20131;-57
2022/05/01 08:11:07;;;;;;;;;;;20.30;50.50;;;;;;5111151;28;20020;-53
2022/05/01 08:13:34;;;;;;;10.18;7.30;;;20.80;51.20;;;;;;5111093;28;19911;-50
2022/05/01 08:16:00;;;;;;;14.15;8.27;;;21.40;46.80;;;;;;5104599;28;20470;-60
2022/05/01 08:21:10;;;;;;;11.02;8.55;;;22.50;44.00;;;;;;5111539;28;20034;-59
2022/05/01 08:23:41;;;;;;;10.00;7.25;;;23.10;44.00;;;;;;5111254;28;20106;-54
2022/05/01 08:26:08;;;;;;;10.27;7.78;;;23.10;44.40;;;;;;5114815;28;20027;-54
2022/05/01 08:28:34;;;;;;;10.32;6.68;;;23.50;43.50;;;;;;5115754;28;20539;-53
2022/05/01 08:31:01;;;;;;;10.88;6.80;;;23.90;43.30;;;;;;5115690;28;20019;-56
2022/05/01 08:33:28;;;;;;;8.82;6.22;;;24.10;40.70;;;;;;5115675;28;20019;-60
2022/05/01 08:35:54;;;;;;;9.27;6.57;;;24.10;39.70;;;;;;5115537;28;20031;-58
2022/05/01 08:38:23;;;;;;;7.53;6.05;;;23.70;40.30;;;;;;5114642;28;20027;-48
2022/05/01 08:40:51;;;;;;;9.85;6.53;;;23.40;44.50;;;;;;5095236;28;20047;-55
2022/05/01 08:43:18;;;;;;;10.18;7.32;;;23.00;41.70;;;;;;5108877;28;20028;-53
2022/05/01 08:45:53;;;;;;;13.20;7.32;;;22.30;42.90;;;;;;5112055;28;20462;-47
2022/05/01 08:48:26;;;;;;;11.40;8.20;;;21.70;45.90;;;;;;5114925;28;20024;-52
2022/05/01 08:50:54;;;;;;;11.38;8.63;;;21.20;46.50;;;;;;5115347;28;20038;-57
2022/05/01 08:53:22;;;;;;;9.57;7.75;;;21.00;48.40;;;;;;5114843;28;20034;-58
2022/05/01 08:55:50;;;;;;;11.30;7.35;;;20.60;48.50;;;;;;5115245;28;20019;-53
2022/05/01 08:58:16;;;;;;;15.10;8.93;;;20.30;49.50;;;;;;5115031;28;20036;-60
2022/05/01 09:00:42;;;;;;;10.63;8.23;;;20.30;52.10;;;;;;5114967;28;20044;-51
2022/05/01 09:03:07;;;;;;;10.35;8.32;;;20.10;50.60;;;;;;5115050;28;20027;-53
2022/05/01 09:05:33;;;;;;;10.27;8.60;;;19.80;52.40;;;;;;5115070;28;20363;-58
2022/05/01 09:07:59;;;;;;;13.30;8.63;;;19.60;51.10;;;;;;5115005;28;20028;-57
2022/05/01 09:10:32;;;;;;;12.60;7.47;;;19.20;50.80;;;;;;5114872;28;20024;-48
2022/05/01 09:12:58;;;;;;;10.35;7.50;;;19.10;56.00;;;;;;5114918;28;20123;-48
2022/05/01 09:15:40;;;;;;;11.68;7.20;;;19.10;52.50;;;;;;5114651;28;20470;-57
2022/05/01 09:18:11;;;;;;;9.63;6.70;;;19.20;53.20;;;;;;5114139;28;20448;-60
2022/05/01 09:20:57;;;;;;;10.27;7.20;;;19.20;53.20;;;;;;5096367;28;20371;-55
2022/05/01 09:23:39;;;;;;;9.85;6.68;;;19.00;51.10;;;;;;5114077;28;20480;-48
2022/05/01 09:26:06;;;;;;;11.60;6.90;;;19.10;50.40;;;;;;5114361;28;20024;-56
2022/05/01 09:28:31;;;;;;;8.90;6.72;;;19.10;54.20;;;;;;5114391;28;20053;-55
2022/05/01 09:30:57;;;;;;;12.00;7.75;;;18.90;52.30;;;;;;5104063;28;20097;-54
2022/05/01 09:33:23;;;;;;;16.63;7.05;;;19.00;52.10;;;;;;5075988;28;20387;-57
2022/05/01 09:35:49;;;;;;;9.15;6.65;;;19.00;53.70;;;;;;5093351;28;20082;-55
2022/05/01 09:38:18;;;;;;;10.23;6.90;;;19.00;51.50;;;;;;5093063;28;20058;-56
2022/05/01 09:40:51;;;;;;;10.60;6.57;;;19.00;51.70;;;;;;5093599;28;20016;-55
2022/05/01 09:43:55;;;;;;;10.45;6.50;;;19.20;54.60;;;;;;5101213;28;20094;-52
2022/05/01 09:46:27;;;;;;;11.95;6.28;;;19.70;50.10;;;;;;5031027;28;20057;-53
2022/05/01 09:49:01;;;;;;;9.13;5.88;;;19.90;50.90;;;;;;5050654;28;20036;-57
2022/05/01 09:51:28;;;;;;;9.05;6.55;;;20.20;48.40;;;;;;5074522;28;20238;-57
2022/05/01 09:53:54;;;;;;;8.23;6.30;;;20.10;47.10;;;;;;5109172;28;20047;-57
2022/05/01 09:56:21;;;;;;;8.50;5.70;;;19.80;47.40;;;;;;5114041;28;20065;-55
2022/05/01 09:58:56;;;;;;;10.73;6.50;;;19.60;49.20;;;;;;5113959;28;20538;-58
2022/05/01 10:01:22;;;;;;;9.07;5.82;;;19.30;46.30;;;;;;5113592;28;20119;-56
2022/05/01 10:03:52;;;;;;;8.75;5.90;;;19.20;49.10;;;;;;5113904;28;20032;-53
2022/05/01 10:06:19;;;;;;;9.00;5.30;;;19.10;49.00;;;;;;5113879;28;20149;-42
2022/05/01 10:08:46;;;;;;;8.52;4.93;;;19.20;47.70;;;;;;5113616;28;20043;-57
2022/05/01 10:11:14;;;;;;;10.70;5.47;;;19.10;47.30;;;;;;5113644;28;20023;-56
2022/05/01 10:13:40;;;;;;;8.10;5.47;;;19.10;48.10;;;;;;5113570;28;20026;-56
2022/05/01 10:16:09;;;;;;;10.23;5.40;;;19.10;48.50;;;;;;5113369;28;20028;-51
2022/05/01 10:18:36;;;;;;;9.85;6.50;;;19.30;47.90;;;;;;5113685;28;20039;-57
2022/05/01 10:21:04;;;;;;;8.35;6.03;;;19.40;46.70;;;;;;5113481;28;20447;-56
2022/05/01 10:23:30;;;;;;;10.00;6.90;;;19.70;47.40;;;;;;5113115;28;20106;-57
2022/05/01 10:26:10;;;;;;;12.02;6.65;;;19.30;45.70;;;;;;5110037;28;20023;-60
2022/05/01 10:28:50;;;;;;;12.00;8.73;;;19.50;48.30;;;;;;5112790;28;20440;-60
2022/05/01 10:34:44;;;;;;;8.68;5.88;;;19.30;46.40;;;;;;5112804;28;20043;-39
2022/05/01 10:37:19;;;;;;;11.03;8.37;;;19.10;48.60;;;;;;5103151;28;20078;-39
2022/05/01 10:39:48;;;;;;;9.32;6.32;;;19.10;48.90;;;;;;5074397;28;20027;-38
2022/05/01 10:42:34;;;;;;;10.30;5.45;;;19.10;46.10;;;;;;5096529;28;20017;-58
2022/05/01 10:45:23;;;;;;;8.48;5.25;;;19.20;46.60;;;;;;5097047;28;20028;-58
2022/05/01 10:47:53;;;;;;;19.67;5.70;;;19.30;47.70;;;;;;5092072;28;20020;-53
2022/05/01 10:50:27;;;;;;;7.97;5.45;;;19.10;46.50;;;;;;5092800;28;20177;-51
2022/05/01 10:53:04;;;;;;;9.15;5.28;;;19.20;48.00;;;;;;5107830;28;20041;-45
2022/05/01 10:55:42;;;;;;;11.05;6.35;;;19.20;50.00;;;;;;5107091;28;20420;-56
2022/05/01 10:58:26;;;;;;;10.77;6.25;;;19.10;47.00;;;;;;5107516;28;20605;-55
2022/05/01 11:00:53;;;;;;;10.88;5.97;;;19.30;49.10;;;;;;5108679;28;20054;-53
2022/05/01 11:03:26;;;;;;;8.35;5.63;;;19.40;47.90;;;;;;5112087;28;20024;-59
2022/05/01 11:06:13;;;;;;;8.60;5.63;;;19.50;48.00;;;;;;5110023;28;20039;-51
2022/05/01 11:08:40;;;;;;;7.88;6.00;;;19.40;47.40;;;;;;5111284;28;20138;-61
2022/05/01 11:11:11;;;;;;;8.38;5.80;;;19.40;47.30;;;;;;5106575;28;20031;-45
2022/05/01 11:13:39;;;;;;;8.13;5.85;;;19.50;45.60;;;;;;5101067;28;20390;-54
2022/05/01 11:16:06;;;;;;;9.63;6.18;;;19.50;45.00;;;;;;5102640;28;20031;-57
2022/05/01 11:18:53;;;;;;;9.23;5.78;;;19.70;47.00;;;;;;5100323;28;20561;-54
2022/05/01 11:21:22;;;;;;;11.68;6.55;;;19.80;47.30;;;;;;5078839;28;20044;-56
2022/05/01 11:24:01;;;;;;;12.57;6.63;;;19.70;45.20;;;;;;5093328;28;20024;-59
2022/05/01 11:26:28;;;;;;;8.13;5.57;;;19.90;47.30;;;;;;5095735;28;20081;-58
2022/05/01 11:28:56;;;;;;;8.52;5.47;;;20.00;49.00;;;;;;5093663;28;20028;-44
2022/05/01 11:31:36;;;;;;;9.75;5.35;;;20.10;45.10;;;;;;5093325;28;20089;-55
2022/05/01 11:34:17;;;;;;;7.50;5.35;;;19.80;42.90;;;;;;5097864;28;20049;-46
2022/05/01 11:36:54;;;;;;;9.02;5.90;;;19.80;47.50;;;;;;5100111;28;20024;-55
2022/05/01 11:39:20;;;;;;;8.98;5.63;;;19.70;45.80;;;;;;5093076;28;20028;-48
2022/05/01 11:41:57;;;;;;;7.47;5.07;;;19.60;46.60;;;;;;5090317;28;20024;-46
2022/05/01 11:44:24;;;;;;;7.78;5.43;;;19.70;47.80;;;;;;5090396;28;20023;-56
2022/05/01 11:46:55;;;;;;;9.25;4.80;;;19.60;44.70;;;;;;5090761;28;20024;-47
2022/05/01 11:49:21;;;;;;;7.78;4.47;;;19.50;45.70;;;;;;5090148;28;20022;-46
2022/05/01 11:51:47;;;;;;;7.43;5.50;;;19.40;44.80;;;;;;5073086;28;20050;-52
2022/05/01 11:54:15;;;;;;;9.75;5.40;;;19.10;45.00;;;;;;5090859;28;20057;-54
2022/05/01 12:02:25;;;;;;;11.25;6.00;;;18.60;48.80;;;;;;5094947;28;20326;-56
2022/05/01 12:04:50;;;;;;;9.80;5.90;;;18.40;45.40;;;;;;5102828;28;20047;-55
2022/05/01 12:07:18;;;;;;;8.50;5.90;;;18.50;49.10;;;;;;5096648;28;20482;-46
2022/05/01 12:09:46;;;;;;;8.60;5.93;;;18.70;48.40;;;;;;5091767;28;20024;-41
2022/05/01 12:12:17;;;;;;;9.27;5.88;;;19.00;46.70;;;;;;5073386;28;20546;-54
2022/05/01 12:14:44;;;;;;;7.50;5.30;;;19.20;47.90;;;;;;5107342;28;20054;-56
2022/05/01 12:17:14;;;;;;;10.32;6.03;;;19.30;46.80;;;;;;5078976;28;20116;-53
2022/05/01 12:19:44;;;;;;;9.43;5.88;;;19.40;44.10;;;;;;5100324;28;20390;-54
2022/05/01 12:22:15;;;;;;;8.48;5.90;;;19.60;44.90;;;;;;5105580;28;20038;-54
2022/05/01 12:24:41;;;;;;;10.20;5.75;;;19.60;45.00;;;;;;5110600;28;20028;-50
2022/05/01 12:27:08;;;;;;;9.38;5.47;;;19.40;42.80;;;;;;5105123;28;20027;-52
2022/05/01 12:29:36;;;;;;;9.93;6.07;;;19.00;45.40;;;;;;5101493;28;20040;-58
2022/05/01 12:32:15;;;;;;;8.40;5.60;;;19.10;47.20;;;;;;5106829;28;20028;-52
2022/05/01 12:34:57;;;;;;;9.05;5.70;;;19.10;47.10;;;;;;5090574;28;20469;-56
2022/05/01 12:37:29;;;;;;;9.30;5.45;;;19.00;44.30;;;;;;5100989;28;20043;-55
2022/05/01 12:40:13;;;;;;;8.48;5.03;;;18.90;46.50;;;;;;5098676;28;20078;-51
2022/05/01 12:45:45;;;;;;;10.20;5.25;;;18.10;47.90;;;;;;5105462;28;20520;-56
2022/05/01 12:48:13;;;;;;;7.53;5.20;;;18.00;47.40;;;;;;5097012;28;20483;-48
2022/05/01 12:50:40;;;;;;;6.57;4.60;;;18.00;47.70;;;;;;5107569;28;20028;-39
2022/05/01 12:53:24;;;;;;;10.38;5.18;;;18.20;49.30;;;;;;5096124;28;20050;-48
2022/05/01 12:55:50;;;;;;;8.07;5.45;;;18.10;49.00;;;;;;5107428;28;20478;-39
2022/05/01 12:58:30;;;;;;;9.40;5.30;;;18.10;47.90;;;;;;5111071;28;20075;-46
2022/05/01 13:00:56;;;;;;;7.97;5.78;;;18.00;49.00;;;;;;5101570;28;20047;-49
2022/05/01 13:03:28;;;;;;;10.20;5.40;;;17.80;50.30;;;;;;5103275;28;20368;-48
2022/05/01 13:05:58;;;;;;;7.47;5.25;;;17.80;49.50;;;;;;5102470;28;20052;-41
2022/05/01 13:08:24;;;;;;;9.18;4.78;;;17.70;51.20;;;;;;5109757;28;20019;-43
2022/05/01 13:11:13;;;;;;;8.30;5.78;;;17.70;51.60;;;;;;5106870;28;20039;-55
2022/05/01 13:13:49;;;;;;;7.85;4.60;;;17.80;48.30;;;;;;5101310;28;20089;-50